Time;durP1;ratioP1;P1;durP2;ratioP2;P2;SDS_P1;SDS_P2;PMS_P1;PMS_P2;Temp;Humidity;BMP_temperature;BMP_pressure;BME280_temperature;BME280_humidity;BME280_pressure;Samples;Min_cycle;Max_cycle;Signal;HPM_P1;HPM_P2
2022/11/29 00:01:39;;;;;;;21.53;12.97;;;;;;;;;;5058689;27;94030;-68
2022/11/29 00:04:09;;;;;;;22.47;12.20;;;;;;;;;;5063423;27;93709;-67
2022/11/29 00:06:38;;;;;;;20.77;11.73;;;;;;;;;;5061320;27;92020;-67
2022/11/29 00:09:07;;;;;;;20.93;10.93;;;;;;;;;;5065814;27;92015;-67
2022/11/29 00:14:22;;;;;;;12.73;9.90;;;;;;;;;;5036062;28;93718;-68
2022/11/29 00:16:51;;;;;;;18.40;9.50;;;;;;;;;;5043027;28;93358;-67
2022/11/29 00:19:21;;;;;;;20.10;11.60;;;;;;;;;;5033876;28;91532;-67
2022/11/29 00:21:50;;;;;;;17.43;9.63;;;;;;;;;;5022781;28;94077;-67
2022/11/29 00:24:19;;;;;;;21.17;10.63;;;;;;;;;;5039012;28;92753;-67
2022/11/29 00:26:47;;;;;;;15.00;9.20;;;;;;;;;;5041462;27;93138;-67
2022/11/29 00:29:15;;;;;;;14.03;8.20;;;;;;;;;;5042705;28;92034;-67
2022/11/29 00:31:44;;;;;;;14.63;9.17;;;;;;;;;;5040954;28;94079;-67
2022/11/29 00:34:12;;;;;;;12.47;8.73;;;;;;;;;;5040298;28;93945;-68
2022/11/29 00:36:42;;;;;;;12.80;8.53;;;;;;;;;;5039788;28;92634;-67
2022/11/29 00:39:11;;;;;;;12.77;8.50;;;;;;;;;;5037664;28;92177;-67
2022/11/29 00:41:39;;;;;;;16.20;7.67;;;;;;;;;;5038013;28;94092;-67
2022/11/29 00:44:07;;;;;;;12.00;7.57;;;;;;;;;;5051367;27;93831;-67
2022/11/29 00:46:36;;;;;;;12.93;7.13;;;;;;;;;;5056762;27;92602;-68
2022/11/29 00:49:05;;;;;;;9.93;6.87;;;;;;;;;;5047782;27;92064;-67
2022/11/29 00:51:33;;;;;;;7.87;6.40;;;;;;;;;;5060098;27;93564;-68
2022/11/29 00:54:03;;;;;;;10.17;6.57;;;;;;;;;;5047310;27;94836;-68
2022/11/29 00:56:32;;;;;;;11.43;6.83;;;;;;;;;;5042727;28;92095;-70
2022/11/29 00:59:00;;;;;;;8.73;6.10;;;;;;;;;;5039078;28;92126;-67
2022/11/29 01:01:29;;;;;;;12.27;7.50;;;;;;;;;;5052917;27;94265;-68
2022/11/29 01:03:58;;;;;;;10.73;7.43;;;;;;;;;;5043679;28;94284;-67
2022/11/29 01:06:26;;;;;;;11.73;7.37;;;;;;;;;;5034530;28;92557;-67
2022/11/29 01:08:54;;;;;;;8.70;6.83;;;;;;;;;;5035668;28;93050;-68
2022/11/29 01:11:25;;;;;;;10.60;6.67;;;;;;;;;;5043608;27;93037;-68
2022/11/29 01:13:54;;;;;;;12.40;6.83;;;;;;;;;;5042253;28;93865;-68
2022/11/29 01:16:23;;;;;;;8.80;6.00;;;;;;;;;;5043207;28;93211;-68
2022/11/29 01:18:51;;;;;;;10.23;6.60;;;;;;;;;;5045342;28;91999;-67
2022/11/29 01:21:20;;;;;;;8.87;5.47;;;;;;;;;;5046086;28;93933;-67
2022/11/29 01:23:49;;;;;;;8.37;6.27;;;;;;;;;;5044459;28;93983;-67
2022/11/29 01:26:18;;;;;;;12.23;6.47;;;;;;;;;;5045844;27;92170;-67
2022/11/29 01:28:48;;;;;;;10.53;5.53;;;;;;;;;;5044853;28;92060;-67
2022/11/29 01:31:17;;;;;;;9.17;6.57;;;;;;;;;;5043907;28;93003;-67
2022/11/29 01:33:46;;;;;;;7.93;5.10;;;;;;;;;;5044943;28;93862;-67
2022/11/29 01:36:15;;;;;;;9.83;5.70;;;;;;;;;;5044401;28;92409;-67
2022/11/29 01:38:43;;;;;;;7.03;5.33;;;;;;;;;;5044554;28;91951;-67
2022/11/29 01:41:12;;;;;;;8.63;5.47;;;;;;;;;;5044428;28;94601;-67
2022/11/29 01:43:56;;;;;;;7.83;5.20;;;;;;;;;;5044791;28;94814;-67
2022/11/29 01:46:24;;;;;;;5.37;4.67;;;;;;;;;;5047959;28;92095;-67
2022/11/29 01:48:54;;;;;;;7.20;5.10;;;;;;;;;;5049264;28;91921;-67
2022/11/29 01:51:22;;;;;;;7.30;4.40;;;;;;;;;;5047889;28;93017;-67
2022/11/29 01:53:51;;;;;;;8.73;5.27;;;;;;;;;;5048993;28;93903;-67
2022/11/29 01:56:19;;;;;;;7.00;4.70;;;;;;;;;;5048767;28;92152;-67
2022/11/29 01:58:48;;;;;;;7.27;4.87;;;;;;;;;;5050005;28;91232;-67
2022/11/29 02:01:18;;;;;;;7.57;4.37;;;;;;;;;;5048920;28;94063;-68
2022/11/29 02:03:46;;;;;;;5.47;4.40;;;;;;;;;;5044225;28;93903;-67
2022/11/29 02:06:14;;;;;;;8.37;4.10;;;;;;;;;;5040072;28;93837;-68
2022/11/29 02:08:43;;;;;;;6.37;4.20;;;;;;;;;;5038517;28;92111;-67
2022/11/29 02:11:20;;;;;;;6.43;4.03;;;;;;;;;;5039701;28;93981;-67
2022/11/29 02:13:51;;;;;;;4.60;3.37;;;;;;;;;;5036670;28;93908;-67
2022/11/29 02:16:22;;;;;;;6.13;3.80;;;;;;;;;;5037737;28;92126;-68
2022/11/29 02:18:52;;;;;;;7.03;3.70;;;;;;;;;;5037664;28;92160;-68
2022/11/29 02:21:32;;;;;;;7.33;3.90;;;;;;;;;;5037240;27;94204;-68
2022/11/29 02:24:07;;;;;;;4.67;3.40;;;;;;;;;;5041970;28;92217;-68
2022/11/29 02:26:41;;;;;;;6.13;4.10;;;;;;;;;;5041185;27;91954;-68
2022/11/29 02:29:34;;;;;;;5.10;3.10;;;;;;;;;;5041599;28;91963;-68
2022/11/29 02:32:20;;;;;;;5.20;3.50;;;;;;;;;;5020481;28;95039;-68
2022/11/29 02:34:52;;;;;;;4.03;3.43;;;;;;;;;;5040516;28;94699;-68
2022/11/29 02:37:23;;;;;;;6.10;3.00;;;;;;;;;;5040737;28;92040;-68
2022/11/29 02:39:58;;;;;;;5.17;3.83;;;;;;;;;;5040699;28;92037;-68
2022/11/29 02:42:49;;;;;;;5.50;3.90;;;;;;;;;;5040114;28;93830;-68
2022/11/29 02:45:38;;;;;;;4.20;3.40;;;;;;;;;;5041300;28;93949;-68
2022/11/29 02:48:15;;;;;;;5.20;2.80;;;;;;;;;;5039160;28;92083;-68
2022/11/29 02:50:45;;;;;;;3.67;3.30;;;;;;;;;;5030695;28;92069;-68
2022/11/29 02:53:14;;;;;;;6.13;3.67;;;;;;;;;;5040828;28;94180;-68
2022/11/29 02:55:44;;;;;;;5.53;3.80;;;;;;;;;;5040893;28;93869;-68
2022/11/29 02:58:16;;;;;;;4.00;2.97;;;;;;;;;;5037740;28;93051;-68
2022/11/29 03:00:46;;;;;;;3.60;2.57;;;;;;;;;;5041213;28;92972;-68
2022/11/29 03:03:18;;;;;;;3.40;2.50;;;;;;;;;;5040402;28;94100;-68
2022/11/29 03:05:48;;;;;;;2.90;2.40;;;;;;;;;;5039987;28;93945;-67
2022/11/29 03:08:17;;;;;;;5.17;3.20;;;;;;;;;;5040522;28;92093;-68
2022/11/29 03:10:50;;;;;;;3.27;2.43;;;;;;;;;;5039968;28;92071;-68
2022/11/29 03:13:20;;;;;;;4.53;2.93;;;;;;;;;;5040811;28;94116;-67
2022/11/29 03:15:50;;;;;;;5.50;2.63;;;;;;;;;;5039869;28;93948;-68
2022/11/29 03:18:26;;;;;;;3.97;2.90;;;;;;;;;;5040946;28;92100;-68
2022/11/29 03:20:56;;;;;;;4.07;2.33;;;;;;;;;;5040442;28;93128;-68
2022/11/29 03:23:26;;;;;;;3.37;2.80;;;;;;;;;;5020105;28;95087;-68
2022/11/29 03:25:56;;;;;;;4.53;2.17;;;;;;;;;;5020740;28;94784;-68
2022/11/29 03:28:25;;;;;;;2.23;2.03;;;;;;;;;;5039608;27;92297;-68
2022/11/29 03:30:54;;;;;;;2.73;2.20;;;;;;;;;;5040021;28;92052;-68
2022/11/29 03:33:25;;;;;;;3.00;2.17;;;;;;;;;;5036784;27;94006;-68
2022/11/29 03:35:54;;;;;;;2.30;2.10;;;;;;;;;;5038201;28;92649;-68
2022/11/29 03:38:25;;;;;;;3.00;2.07;;;;;;;;;;5034209;28;92420;-68
2022/11/29 03:40:56;;;;;;;3.93;2.33;;;;;;;;;;5033804;28;93212;-68
2022/11/29 03:43:27;;;;;;;3.80;2.43;;;;;;;;;;5040146;28;94393;-68
2022/11/29 03:45:57;;;;;;;3.67;1.90;;;;;;;;;;5040582;28;93830;-68
2022/11/29 03:48:28;;;;;;;2.40;2.07;;;;;;;;;;5040420;28;93032;-68
2022/11/29 03:50:57;;;;;;;3.23;1.97;;;;;;;;;;5039905;28;92001;-67
2022/11/29 03:53:27;;;;;;;3.73;2.43;;;;;;;;;;5040315;28;92123;-68
2022/11/29 03:55:57;;;;;;;4.03;2.30;;;;;;;;;;5039659;28;94070;-70
2022/11/29 03:58:30;;;;;;;4.23;2.43;;;;;;;;;;5040249;28;92004;-67
2022/11/29 04:01:08;;;;;;;3.17;2.20;;;;;;;;;;5040588;28;92100;-69
2022/11/29 04:03:44;;;;;;;3.20;2.00;;;;;;;;;;5040165;28;94154;-67
2022/11/29 04:06:19;;;;;;;2.80;1.93;;;;;;;;;;5039981;28;94076;-69
2022/11/29 04:08:54;;;;;;;2.00;1.80;;;;;;;;;;5040074;28;92114;-69
2022/11/29 04:11:53;;;;;;;2.10;1.90;;;;;;;;;;5040038;28;92106;-69
2022/11/29 04:14:32;;;;;;;4.13;1.90;;;;;;;;;;5038510;28;95110;-69
2022/11/29 04:17:26;;;;;;;4.40;2.30;;;;;;;;;;5039592;28;94857;-69
2022/11/29 04:20:02;;;;;;;3.67;1.70;;;;;;;;;;5039765;28;92153;-69
2022/11/29 04:22:39;;;;;;;2.20;1.67;;;;;;;;;;5040595;28;92183;-69
2022/11/29 04:25:22;;;;;;;2.27;1.80;;;;;;;;;;5039823;28;94133;-70
2022/11/29 04:27:58;;;;;;;2.47;2.00;;;;;;;;;;5039245;27;93777;-69
2022/11/29 04:30:26;;;;;;;2.50;1.50;;;;;;;;;;5038977;28;92535;-70
2022/11/29 04:33:01;;;;;;;2.83;2.03;;;;;;;;;;5040225;28;91212;-70
2022/11/29 04:35:33;;;;;;;2.30;1.70;;;;;;;;;;5038194;28;94110;-70
2022/11/29 04:38:07;;;;;;;2.40;1.47;;;;;;;;;;5038850;28;93914;-70
2022/11/29 04:40:38;;;;;;;2.33;1.70;;;;;;;;;;5038541;28;93035;-70
2022/11/29 04:43:10;;;;;;;2.87;1.63;;;;;;;;;;5038126;28;92124;-70
2022/11/29 04:45:47;;;;;;;2.30;1.47;;;;;;;;;;5037751;28;93961;-70
2022/11/29 04:48:21;;;;;;;2.87;2.10;;;;;;;;;;5036699;28;92093;-70
2022/11/29 04:50:53;;;;;;;1.73;1.63;;;;;;;;;;5039865;28;92061;-70
2022/11/29 04:53:29;;;;;;;2.13;1.87;;;;;;;;;;5039136;28;92166;-69
2022/11/29 04:56:00;;;;;;;2.97;1.70;;;;;;;;;;5039263;28;94093;-70
2022/11/29 04:58:30;;;;;;;2.27;1.80;;;;;;;;;;5039604;28;93804;-70
2022/11/29 05:01:00;;;;;;;1.63;1.47;;;;;;;;;;5038312;28;92098;-70
2022/11/29 05:03:33;;;;;;;3.53;1.50;;;;;;;;;;5038721;28;92199;-71
2022/11/29 05:06:05;;;;;;;2.37;2.03;;;;;;;;;;5038365;28;95068;-70
2022/11/29 05:08:34;;;;;;;2.83;2.00;;;;;;;;;;5038247;28;94758;-70
2022/11/29 05:11:04;;;;;;;2.20;1.40;;;;;;;;;;5037878;28;92328;-70
2022/11/29 05:13:36;;;;;;;3.50;1.87;;;;;;;;;;5035544;28;92724;-70
2022/11/29 05:16:13;;;;;;;2.23;1.80;;;;;;;;;;5034551;28;94166;-70
2022/11/29 05:18:49;;;;;;;1.93;1.10;;;;;;;;;;5035138;28;92614;-70
2022/11/29 05:21:20;;;;;;;1.40;1.30;;;;;;;;;;5036420;28;92432;-69
2022/11/29 05:23:49;;;;;;;1.87;1.50;;;;;;;;;;5038023;28;91334;-69
2022/11/29 05:26:19;;;;;;;4.87;1.50;;;;;;;;;;5036496;27;95358;-69
2022/11/29 05:28:50;;;;;;;1.63;1.53;;;;;;;;;;5036877;28;93985;-69
2022/11/29 05:31:36;;;;;;;2.27;1.77;;;;;;;;;;5037701;28;93024;-69
2022/11/29 05:34:35;;;;;;;4.90;2.07;;;;;;;;;;5038773;28;92082;-69
2022/11/29 05:37:08;;;;;;;3.93;1.63;;;;;;;;;;4957439;28;94314;-69
2022/11/29 05:39:38;;;;;;;2.63;1.57;;;;;;;;;;5023047;28;94457;-69
2022/11/29 05:42:10;;;;;;;2.13;0.87;;;;;;;;;;5038722;28;92111;-69
2022/11/29 05:44:39;;;;;;;2.20;1.40;;;;;;;;;;5041831;27;93556;-69
2022/11/29 05:47:09;;;;;;;2.70;1.57;;;;;;;;;;5054425;27;94238;-69
2022/11/29 05:49:39;;;;;;;1.57;1.20;;;;;;;;;;5039190;28;94307;-69
2022/11/29 05:52:19;;;;;;;2.67;1.53;;;;;;;;;;5038797;28;91976;-69
2022/11/29 05:54:49;;;;;;;2.80;1.50;;;;;;;;;;5037092;28;92515;-70
2022/11/29 05:57:18;;;;;;;1.40;1.27;;;;;;;;;;5037420;28;95020;-69
2022/11/29 05:59:46;;;;;;;3.13;1.70;;;;;;;;;;5038654;28;94784;-69
2022/11/29 06:02:18;;;;;;;1.67;1.53;;;;;;;;;;5037996;28;92115;-69
2022/11/29 06:04:58;;;;;;;1.93;1.50;;;;;;;;;;5037686;28;92041;-70
2022/11/29 06:07:30;;;;;;;1.67;1.43;;;;;;;;;;5038512;28;94228;-69
2022/11/29 06:10:01;;;;;;;1.33;1.23;;;;;;;;;;5038304;28;93911;-70
2022/11/29 06:12:33;;;;;;;2.47;1.73;;;;;;;;;;5039063;28;93536;-70
2022/11/29 06:15:12;;;;;;;1.30;1.20;;;;;;;;;;5039324;28;91424;-70
2022/11/29 06:17:48;;;;;;;3.83;1.40;;;;;;;;;;5038215;28;93638;-70
2022/11/29 06:20:34;;;;;;;1.80;1.10;;;;;;;;;;5037227;28;93965;-70
2022/11/29 06:23:27;;;;;;;2.00;1.40;;;;;;;;;;5037444;28;93085;-71
2022/11/29 06:26:00;;;;;;;1.80;1.57;;;;;;;;;;5019608;28;92146;-70
2022/11/29 06:28:40;;;;;;;1.50;1.40;;;;;;;;;;5038117;28;93976;-70
2022/11/29 06:31:11;;;;;;;2.33;1.67;;;;;;;;;;5038365;28;93919;-70
2022/11/29 06:33:41;;;;;;;1.77;1.10;;;;;;;;;;5038779;28;92094;-70
2022/11/29 06:36:16;;;;;;;1.10;1.00;;;;;;;;;;5038439;28;92092;-70
2022/11/29 06:38:45;;;;;;;0.87;0.80;;;;;;;;;;5037850;28;94303;-70
2022/11/29 06:41:17;;;;;;;1.77;1.00;;;;;;;;;;5038375;28;93839;-70
2022/11/29 06:43:46;;;;;;;2.47;1.60;;;;;;;;;;5038043;28;92289;-70
2022/11/29 06:46:15;;;;;;;1.43;1.20;;;;;;;;;;5038347;28;93661;-71
2022/11/29 06:48:45;;;;;;;2.07;1.50;;;;;;;;;;5036380;28;95272;-70
2022/11/29 06:51:15;;;;;;;1.50;1.17;;;;;;;;;;5028957;28;94850;-71
2022/11/29 06:53:45;;;;;;;1.43;1.27;;;;;;;;;;5037873;28;92214;-70
2022/11/29 06:56:16;;;;;;;1.57;1.13;;;;;;;;;;5038224;28;92174;-70
2022/11/29 06:58:47;;;;;;;1.80;1.30;;;;;;;;;;5037615;28;94208;-70
2022/11/29 07:01:18;;;;;;;1.87;1.30;;;;;;;;;;5037580;28;93808;-70
2022/11/29 07:03:52;;;;;;;2.57;1.20;;;;;;;;;;5038597;28;92145;-71
2022/11/29 07:06:21;;;;;;;2.03;1.30;;;;;;;;;;5038908;28;91378;-70
2022/11/29 07:08:50;;;;;;;1.93;1.50;;;;;;;;;;5038404;27;94186;-70
2022/11/29 07:11:20;;;;;;;2.47;1.90;;;;;;;;;;5041163;28;94321;-69
2022/11/29 07:13:49;;;;;;;2.83;1.90;;;;;;;;;;5039479;28;93020;-69
2022/11/29 07:16:18;;;;;;;1.23;1.13;;;;;;;;;;5020766;28;92124;-69
2022/11/29 07:18:48;;;;;;;5.87;1.87;;;;;;;;;;5027721;28;94289;-68
2022/11/29 07:21:17;;;;;;;1.33;1.23;;;;;;;;;;5040309;28;93917;-69
2022/11/29 07:23:46;;;;;;;2.60;1.27;;;;;;;;;;5040517;28;92089;-69
2022/11/29 07:26:18;;;;;;;1.57;1.33;;;;;;;;;;5040438;27;91979;-69
2022/11/29 07:28:51;;;;;;;2.13;1.50;;;;;;;;;;5040589;28;94240;-69
2022/11/29 07:31:21;;;;;;;1.97;1.10;;;;;;;;;;5040732;28;93724;-69
2022/11/29 07:33:53;;;;;;;2.27;1.30;;;;;;;;;;5040900;28;92222;-69
2022/11/29 07:36:23;;;;;;;2.40;1.13;;;;;;;;;;5040783;28;92636;-69
2022/11/29 07:38:54;;;;;;;1.73;1.40;;;;;;;;;;5039074;28;97141;-69
2022/11/29 07:41:24;;;;;;;1.63;1.50;;;;;;;;;;5040255;28;97430;-69
2022/11/29 07:43:56;;;;;;;1.37;1.27;;;;;;;;;;5040054;28;92097;-69
2022/11/29 07:46:24;;;;;;;1.63;1.33;;;;;;;;;;5040795;28;91938;-70
2022/11/29 07:48:53;;;;;;;2.43;1.33;;;;;;;;;;5040846;28;92985;-69
2022/11/29 07:51:21;;;;;;;3.83;1.40;;;;;;;;;;5039876;28;94063;-69
2022/11/29 07:53:50;;;;;;;1.27;0.97;;;;;;;;;;5040179;28;92208;-69
2022/11/29 07:56:18;;;;;;;1.20;1.10;;;;;;;;;;5039494;28;91800;-69
2022/11/29 07:58:47;;;;;;;1.17;1.07;;;;;;;;;;5040168;28;94101;-69
2022/11/29 08:01:17;;;;;;;1.40;1.20;;;;;;;;;;5039814;28;92588;-69
2022/11/29 08:03:45;;;;;;;4.07;1.77;;;;;;;;;;5038923;28;93061;-69
2022/11/29 08:06:14;;;;;;;2.97;1.67;;;;;;;;;;5039615;28;92137;-69
2022/11/29 08:08:42;;;;;;;1.50;1.40;;;;;;;;;;5039475;28;94326;-70
2022/11/29 08:11:12;;;;;;;1.90;1.33;;;;;;;;;;5038439;28;93726;-64
2022/11/29 08:13:40;;;;;;;3.60;1.90;;;;;;;;;;5039329;28;92161;-64
2022/11/29 08:16:09;;;;;;;1.20;1.10;;;;;;;;;;5039050;28;92133;-64
2022/11/29 08:18:39;;;;;;;1.47;1.27;;;;;;;;;;5037515;28;94182;-64
2022/11/29 08:21:08;;;;;;;2.73;1.20;;;;;;;;;;5037841;28;93804;-64
2022/11/29 08:23:36;;;;;;;4.57;2.00;;;;;;;;;;5039164;28;92067;-64
2022/11/29 08:26:05;;;;;;;2.00;1.40;;;;;;;;;;5038711;28;92524;-65
2022/11/29 08:28:34;;;;;;;2.47;1.60;;;;;;;;;;5039110;27;95033;-64
2022/11/29 08:31:02;;;;;;;3.20;2.10;;;;;;;;;;5039835;28;94908;-65
2022/11/29 08:33:30;;;;;;;1.73;1.30;;;;;;;;;;5040556;28;92072;-64
2022/11/29 08:36:05;;;;;;;2.33;1.63;;;;;;;;;;5039966;28;92009;-65
2022/11/29 08:38:34;;;;;;;1.00;0.90;;;;;;;;;;5039427;28;93931;-65
2022/11/29 08:41:03;;;;;;;2.00;1.37;;;;;;;;;;5039573;28;92871;-65
2022/11/29 08:43:31;;;;;;;1.50;1.07;;;;;;;;;;5039432;28;92028;-65
2022/11/29 08:45:59;;;;;;;5.17;1.47;;;;;;;;;;5039584;28;91348;-65
2022/11/29 08:48:28;;;;;;;1.90;1.60;;;;;;;;;;5039450;28;94120;-65
2022/11/29 08:50:57;;;;;;;1.33;1.23;;;;;;;;;;5039143;28;93832;-65
2022/11/29 08:53:42;;;;;;;1.90;1.30;;;;;;;;;;5038792;28;93015;-63
2022/11/29 08:56:10;;;;;;;1.57;1.10;;;;;;;;;;5039430;28;92118;-65
2022/11/29 08:58:59;;;;;;;1.93;1.60;;;;;;;;;;5039243;28;95375;-63
2022/11/29 09:01:27;;;;;;;1.00;1.00;;;;;;;;;;5039057;28;93631;-63
2022/11/29 09:04:01;;;;;;;1.77;1.67;;;;;;;;;;5039061;28;92164;-63
2022/11/29 09:06:31;;;;;;;1.93;1.20;;;;;;;;;;5039244;28;92209;-63
2022/11/29 09:09:01;;;;;;;1.33;1.23;;;;;;;;;;5039011;28;94103;-63
2022/11/29 09:11:29;;;;;;;3.47;1.93;;;;;;;;;;5039344;28;93683;-63
2022/11/29 09:13:58;;;;;;;1.00;0.90;;;;;;;;;;5039118;28;92239;-63
2022/11/29 09:16:27;;;;;;;3.00;1.87;;;;;;;;;;5039043;28;93101;-63
2022/11/29 09:18:56;;;;;;;1.50;1.10;;;;;;;;;;5038382;28;95160;-63
2022/11/29 09:21:25;;;;;;;2.77;1.57;;;;;;;;;;5038490;28;94974;-64
2022/11/29 09:23:57;;;;;;;1.30;1.20;;;;;;;;;;5038908;28;92039;-63
2022/11/29 09:26:28;;;;;;;4.37;1.73;;;;;;;;;;5038566;27;92019;-64
2022/11/29 09:28:57;;;;;;;2.40;1.40;;;;;;;;;;5038390;28;92997;-64
2022/11/29 09:31:26;;;;;;;2.27;1.70;;;;;;;;;;5037818;27;93338;-64
2022/11/29 09:33:55;;;;;;;2.43;1.40;;;;;;;;;;5039078;28;91988;-64
2022/11/29 09:36:23;;;;;;;1.90;1.57;;;;;;;;;;5039178;28;91332;-64
2022/11/29 09:38:56;;;;;;;2.30;1.50;;;;;;;;;;5037872;28;93064;-64
2022/11/29 09:41:33;;;;;;;1.70;1.20;;;;;;;;;;5037973;28;93945;-64
2022/11/29 09:44:03;;;;;;;2.27;1.50;;;;;;;;;;5038042;28;93111;-64
2022/11/29 09:46:34;;;;;;;2.70;1.57;;;;;;;;;;5038763;28;92261;-64
2022/11/29 09:49:12;;;;;;;1.20;1.10;;;;;;;;;;5038428;28;94247;-63
2022/11/29 09:51:42;;;;;;;3.60;1.53;;;;;;;;;;5037742;28;93785;-63
2022/11/29 09:54:21;;;;;;;1.73;1.07;;;;;;;;;;5038773;28;92083;-63
2022/11/29 09:56:51;;;;;;;1.77;1.67;;;;;;;;;;5038600;28;92083;-64
2022/11/29 09:59:22;;;;;;;2.70;1.50;;;;;;;;;;5038323;28;94258;-63
2022/11/29 10:01:53;;;;;;;2.10;1.20;;;;;;;;;;5038338;28;93921;-64
2022/11/29 10:04:23;;;;;;;2.87;1.53;;;;;;;;;;5038751;28;91978;-64
2022/11/29 10:06:55;;;;;;;2.07;1.20;;;;;;;;;;5038350;28;92116;-64
2022/11/29 10:09:25;;;;;;;2.10;1.30;;;;;;;;;;5037206;28;93925;-64
2022/11/29 10:12:06;;;;;;;2.17;1.50;;;;;;;;;;5038530;28;94767;-64
2022/11/29 10:14:35;;;;;;;2.27;1.70;;;;;;;;;;5038518;28;92119;-64
2022/11/29 10:17:07;;;;;;;1.83;1.30;;;;;;;;;;5038320;28;92096;-64
2022/11/29 10:19:36;;;;;;;1.70;1.60;;;;;;;;;;5037679;28;94095;-64
2022/11/29 10:22:05;;;;;;;1.87;1.40;;;;;;;;;;5037743;28;93912;-64
2022/11/29 10:24:33;;;;;;;2.30;1.63;;;;;;;;;;5038350;28;92041;-64
2022/11/29 10:27:03;;;;;;;2.47;1.77;;;;;;;;;;5038343;27;91283;-64
2022/11/29 10:29:33;;;;;;;1.30;1.17;;;;;;;;;;5037829;28;94180;-64
2022/11/29 10:32:04;;;;;;;1.97;1.50;;;;;;;;;;5037605;28;93666;-64
2022/11/29 10:34:37;;;;;;;3.40;1.53;;;;;;;;;;5037589;28;92977;-64
2022/11/29 10:37:06;;;;;;;3.40;1.40;;;;;;;;;;5037744;28;92200;-64
2022/11/29 10:39:38;;;;;;;3.77;1.90;;;;;;;;;;5037387;28;94142;-64
2022/11/29 10:42:47;;;;;;;2.43;1.93;;;;;;;;;;5037084;27;94149;-64
2022/11/29 10:44:56;;;;;;;3.93;2.17;;;;;;;;;;5041324;28;92139;-64
2022/11/29 10:47:25;;;;;;;1.90;1.53;;;;;;;;;;5041945;28;92100;-64
2022/11/29 10:49:53;;;;;;;4.60;1.80;;;;;;;;;;5040990;28;93991;-64
2022/11/29 10:52:22;;;;;;;2.50;2.10;;;;;;;;;;5041625;28;94022;-64
2022/11/29 10:54:50;;;;;;;2.73;2.20;;;;;;;;;;5041090;28;92215;-64
2022/11/29 10:57:20;;;;;;;2.57;2.37;;;;;;;;;;5040886;28;92095;-64
2022/11/29 11:00:00;;;;;;;4.20;2.43;;;;;;;;;;5040360;28;95056;-64
2022/11/29 11:02:28;;;;;;;3.40;2.00;;;;;;;;;;5041002;28;94831;-64
2022/11/29 11:04:57;;;;;;;3.27;2.00;;;;;;;;;;5040829;28;92112;-64
2022/11/29 11:07:26;;;;;;;3.47;2.10;;;;;;;;;;5040933;28;92118;-64
2022/11/29 11:09:56;;;;;;;3.90;2.80;;;;;;;;;;5040619;28;93045;-63
2022/11/29 11:12:26;;;;;;;3.80;2.67;;;;;;;;;;5040885;28;93965;-64
2022/11/29 11:15:13;;;;;;;2.73;2.50;;;;;;;;;;5041204;28;92315;-63
2022/11/29 11:17:42;;;;;;;2.67;2.47;;;;;;;;;;5041711;28;91374;-63
2022/11/29 11:20:21;;;;;;;3.00;2.70;;;;;;;;;;5040340;28;94282;-64
2022/11/29 11:22:55;;;;;;;4.50;2.80;;;;;;;;;;5040741;28;92785;-64
2022/11/29 11:25:26;;;;;;;3.87;2.30;;;;;;;;;;5040388;28;93020;-64
2022/11/29 11:27:54;;;;;;;5.60;3.30;;;;;;;;;;5049656;27;92156;-64
2022/11/29 11:30:25;;;;;;;3.10;2.80;;;;;;;;;;5059808;27;94069;-63
2022/11/29 11:33:07;;;;;;;3.77;2.70;;;;;;;;;;5060224;27;93943;-63
2022/11/29 11:35:36;;;;;;;4.23;3.07;;;;;;;;;;5060654;27;92080;-63
2022/11/29 11:38:04;;;;;;;2.60;2.40;;;;;;;;;;5059941;27;92117;-63
2022/11/29 11:40:33;;;;;;;4.97;2.93;;;;;;;;;;5059464;27;94360;-63
2022/11/29 11:43:02;;;;;;;3.43;3.03;;;;;;;;;;5059816;27;93815;-64
2022/11/29 11:45:35;;;;;;;5.10;3.53;;;;;;;;;;5059512;27;92101;-64
2022/11/29 11:48:05;;;;;;;4.77;3.37;;;;;;;;;;5059609;27;92117;-63
2022/11/29 11:50:34;;;;;;;3.63;3.00;;;;;;;;;;5058182;27;95141;-64
2022/11/29 11:53:03;;;;;;;3.67;2.67;;;;;;;;;;5059221;27;94873;-64
2022/11/29 11:55:33;;;;;;;4.47;2.90;;;;;;;;;;5059435;27;91948;-64
2022/11/29 11:58:06;;;;;;;2.83;2.63;;;;;;;;;;5058586;27;92268;-63
2022/11/29 12:00:40;;;;;;;4.80;2.97;;;;;;;;;;5059205;27;94244;-64
2022/11/29 12:03:40;;;;;;;5.40;3.20;;;;;;;;;;5059645;27;95637;-64
2022/11/29 12:06:13;;;;;;;4.83;3.30;;;;;;;;;;5059739;27;92111;-64
2022/11/29 12:08:42;;;;;;;4.87;3.23;;;;;;;;;;5060123;27;91343;-64
2022/11/29 12:11:11;;;;;;;3.10;2.70;;;;;;;;;;5058594;27;94628;-64
2022/11/29 12:13:41;;;;;;;4.17;2.83;;;;;;;;;;5057841;27;94004;-64
2022/11/29 12:16:14;;;;;;;4.17;3.07;;;;;;;;;;5058838;27;93058;-64
2022/11/29 12:18:43;;;;;;;3.93;3.13;;;;;;;;;;5059348;27;92170;-64
2022/11/29 12:21:13;;;;;;;2.77;2.57;;;;;;;;;;5058439;27;94502;-64
2022/11/29 12:23:44;;;;;;;5.13;3.50;;;;;;;;;;5058755;27;94344;-64
2022/11/29 12:26:14;;;;;;;3.27;2.63;;;;;;;;;;5059129;27;92015;-64
2022/11/29 12:29:11;;;;;;;2.97;2.63;;;;;;;;;;5083926;27;81660;-65
2022/11/29 12:31:42;;;;;;;3.30;2.47;;;;;;;;;;5081285;27;81754;-64
2022/11/29 12:34:16;;;;;;;4.63;3.03;;;;;;;;;;5081663;27;81790;-64
2022/11/29 12:36:51;;;;;;;4.90;2.87;;;;;;;;;;5081700;27;81732;-64
2022/11/29 12:39:22;;;;;;;3.67;3.17;;;;;;;;;;5080893;27;83423;-65
2022/11/29 12:41:52;;;;;;;3.00;2.50;;;;;;;;;;5081546;27;81781;-62
2022/11/29 12:44:28;;;;;;;3.07;2.20;;;;;;;;;;5081283;27;81660;-64
2022/11/29 12:46:58;;;;;;;4.13;2.97;;;;;;;;;;5080996;27;82725;-64
2022/11/29 12:49:48;;;;;;;3.77;2.60;;;;;;;;;;5080982;27;81666;-64
2022/11/29 12:52:18;;;;;;;3.13;2.43;;;;;;;;;;5081063;27;82333;-64
2022/11/29 12:54:50;;;;;;;3.57;2.40;;;;;;;;;;5081214;27;81845;-64
2022/11/29 12:57:19;;;;;;;5.00;2.90;;;;;;;;;;5080776;27;81778;-64
2022/11/29 12:59:55;;;;;;;4.50;2.63;;;;;;;;;;5081188;27;82112;-65
2022/11/29 13:02:26;;;;;;;5.17;2.50;;;;;;;;;;5081170;27;81727;-64
2022/11/29 13:04:57;;;;;;;5.27;3.03;;;;;;;;;;5081386;27;81617;-64
2022/11/29 13:07:28;;;;;;;6.50;2.87;;;;;;;;;;5080864;27;83066;-64
2022/11/29 13:10:00;;;;;;;4.40;3.00;;;;;;;;;;5080639;27;82261;-64
2022/11/29 13:12:32;;;;;;;3.27;2.93;;;;;;;;;;5080960;27;81620;-64
2022/11/29 13:15:02;;;;;;;4.33;3.20;;;;;;;;;;5081107;27;82017;-64
2022/11/29 13:17:31;;;;;;;3.10;2.80;;;;;;;;;;5080533;27;83923;-64
2022/11/29 13:20:01;;;;;;;3.50;2.90;;;;;;;;;;5080663;27;81754;-63
2022/11/29 13:22:30;;;;;;;4.70;2.77;;;;;;;;;;5080392;27;82597;-63
2022/11/29 13:24:58;;;;;;;2.73;2.53;;;;;;;;;;5080841;27;81708;-63
2022/11/29 13:27:27;;;;;;;5.73;2.80;;;;;;;;;;5079467;27;83795;-63
2022/11/29 13:29:56;;;;;;;4.70;2.80;;;;;;;;;;5080069;27;83354;-63
2022/11/29 13:32:30;;;;;;;3.37;3.07;;;;;;;;;;5080331;27;82217;-64
2022/11/29 13:34:59;;;;;;;4.47;2.80;;;;;;;;;;5080309;27;81686;-64
2022/11/29 13:37:29;;;;;;;4.77;2.93;;;;;;;;;;5080254;27;82841;-64
2022/11/29 13:39:59;;;;;;;5.43;3.20;;;;;;;;;;5069219;27;81813;-64
2022/11/29 13:42:29;;;;;;;2.73;2.37;;;;;;;;;;5066532;27;81583;-63
2022/11/29 13:44:59;;;;;;;2.83;2.60;;;;;;;;;;5066584;27;81809;-63
2022/11/29 13:47:27;;;;;;;2.93;2.60;;;;;;;;;;5065958;27;82440;-63
2022/11/29 13:49:58;;;;;;;2.53;2.33;;;;;;;;;;5066281;27;82885;-63
2022/11/29 13:52:28;;;;;;;4.67;3.23;;;;;;;;;;5066424;27;81776;-63
2022/11/29 13:55:08;;;;;;;3.20;2.90;;;;;;;;;;5066696;27;81637;-64
2022/11/29 13:57:52;;;;;;;2.37;2.17;;;;;;;;;;5065820;27;83914;-63
2022/11/29 14:00:48;;;;;;;2.57;2.37;;;;;;;;;;5066639;27;84838;-63
2022/11/29 14:03:20;;;;;;;3.23;2.60;;;;;;;;;;5066345;27;81692;-63
2022/11/29 14:05:50;;;;;;;3.57;2.87;;;;;;;;;;5066098;27;81810;-64
2022/11/29 14:08:23;;;;;;;3.87;2.67;;;;;;;;;;5065894;27;83700;-63
2022/11/29 14:10:52;;;;;;;3.47;2.57;;;;;;;;;;5066110;27;82427;-63
2022/11/29 14:13:21;;;;;;;2.83;2.53;;;;;;;;;;5065954;27;81898;-64
2022/11/29 14:15:53;;;;;;;2.63;2.27;;;;;;;;;;5066336;27;81665;-63
2022/11/29 14:18:36;;;;;;;3.80;2.30;;;;;;;;;;5066258;27;83889;-63
2022/11/29 14:21:06;;;;;;;4.03;2.57;;;;;;;;;;5065113;27;82076;-64
2022/11/29 14:23:35;;;;;;;6.17;2.47;;;;;;;;;;5065798;27;82545;-63
2022/11/29 14:26:21;;;;;;;3.23;2.70;;;;;;;;;;5065816;27;81799;-65
2022/11/29 14:28:56;;;;;;;3.40;2.77;;;;;;;;;;5065694;27;81718;-64
2022/11/29 14:31:42;;;;;;;5.87;2.70;;;;;;;;;;5065641;27;82277;-63
2022/11/29 14:34:12;;;;;;;3.80;3.00;;;;;;;;;;5065894;27;81688;-66
2022/11/29 14:36:44;;;;;;;4.50;2.43;;;;;;;;;;5066272;27;82753;-65
2022/11/29 14:39:16;;;;;;;3.10;2.50;;;;;;;;;;5066078;27;82838;-64
2022/11/29 14:41:49;;;;;;;4.47;3.00;;;;;;;;;;5065563;27;83229;-66
2022/11/29 14:44:18;;;;;;;3.53;2.40;;;;;;;;;;5065887;27;81975;-65
2022/11/29 14:46:46;;;;;;;3.17;2.80;;;;;;;;;;5065879;27;81832;-65
2022/11/29 14:49:24;;;;;;;5.87;3.50;;;;;;;;;;5065699;27;82936;-65
2022/11/29 14:52:10;;;;;;;3.60;2.67;;;;;;;;;;5064391;27;82097;-66
2022/11/29 14:54:51;;;;;;;4.53;2.63;;;;;;;;;;5065463;27;82206;-65
2022/11/29 14:57:40;;;;;;;5.70;2.77;;;;;;;;;;5065742;27;81722;-65
2022/11/29 15:00:10;;;;;;;2.53;2.33;;;;;;;;;;5065943;27;84835;-64
2022/11/29 15:02:40;;;;;;;3.20;2.60;;;;;;;;;;5065491;27;81776;-65
2022/11/29 15:05:15;;;;;;;3.10;2.80;;;;;;;;;;5065597;27;81577;-65
2022/11/29 15:07:46;;;;;;;4.03;2.90;;;;;;;;;;5065271;27;82396;-66
2022/11/29 15:10:17;;;;;;;4.17;3.10;;;;;;;;;;5064934;27;83684;-65
2022/11/29 15:12:45;;;;;;;3.30;2.80;;;;;;;;;;5065023;27;81933;-66